Weather observations for the past three days for
Marshalltown, Marshalltown Municipal Airport
Metric (Imperial)
Date Time (cdt) Wind (kph) Vis. (km) Weather Sky Cond. Temperature (ºC) Relative Humidity Wind Chill (°C) Heat Index (°C) Pressure Precipitation (cm)
Air Dwpt 6 hour altimeter (cm) sea level (mb) 1 hr 3 hr 6 hr
Max. Min.
10 08:53 Vrbl 6 16.09 Fair CLR 12.8 -2.2 36% 76.56 1020.7
10 07:53 NW 9 16.09 Fair CLR 8.3 -1.1 52% 7 76.5 1020.2
10 06:53 W 6 16.09 Fair CLR 2.8 -2.8 7.8 0.6 67% 76.48 1020.0
10 05:53 NW 13 16.09 Fair CLR 2.2 -3.9 64% -1 76.43 1019.2
10 04:53 NW 11 16.09 Fair CLR 2.2 -3.9 64% -1 76.4 1018.9
10 03:53 NW 13 16.09 Fair CLR 2.8 -4.4 59% -0 76.38 1018.4
10 02:53 NW 11 16.09 Fair CLR 4.4 -4.4 53% 2 76.33 1017.5
10 01:53 N 17 16.09 Fair CLR 7.2 -4.4 44% 5 76.25 1016.8
10 00:53 N 19 16.09 Fair CLR 7.8 -4.4 17.8 5.6 42% 5 76.2 1016.0
09 23:53 NW 11 16.09 Fair CLR 7.8 -3.9 44% 6 76.15 1015.3
09 22:53 N 15 16.09 Fair CLR 8.3 -4.4 41% 6 76.1 1014.6
09 21:53 NW 17 16.09 Fair CLR 10.6 -3.3 38% 76.05 1013.6
09 20:53 NW 13 16.09 Fair CLR 11.1 -3.3 37% 75.95 1012.5
09 19:53 N 20 16.09 Fair CLR 15.6 -3.3 27% 75.84 1011.1
09 18:53 N 28 16.09 Fair CLR 17.8 -2.2 21.1 16.7 26% 75.77 1010.3
09 17:53 NW 24 G 43 16.09 Fair CLR 18.9 -0.6 27% 75.72 1009.6
09 16:53 N 35 G 46 16.09 Fair and Breezy CLR 19.4 0.6 29% 75.69 1009.0
09 15:53 NW 24 G 43 16.09 A Few Clouds FEW100 20.6 2.8 31% 75.64 1008.5
09 14:53 NW 20 16.09 Fair CLR 18.9 6.1 43% 75.64 1008.3
09 13:53 NW 31 G 46 16.09 Mostly Cloudy BKN100 17.2 6.7 50% 75.64 1008.4
09 12:53 NW 26 G 52 16.09 Mostly Cloudy BKN110 18.3 5.6 20 7.8 43% 75.59 1007.5
09 11:53 NW 28 G 48 16.09 Partly Cloudy SCT120 19.4 4.4 37% 75.59 1007.3
09 10:53 NW 28 16.09 Mostly Cloudy BKN110 18.3 2.8 36% 75.57 1006.9
09 09:53 NW 24 G 43 16.09 A Few Clouds FEW120 18.3 1.7 33% 75.54 1006.7
09 08:53 NW 26 G 44 16.09 Fair CLR 16.1 1.7 38% 75.51 1006.6
09 07:53 SW 11 16.09 Fair CLR 12.8 2.8 51% 75.44 1005.3
09 06:53 W 7 16.09 Fair CLR 7.2 2.2 11.7 5.6 71% 6 75.39 1005.0
09 05:53 S 7 16.09 Fair CLR 8.3 1.7 63% 7 75.34 1004.3
09 04:53 W 11 16.09 Fair CLR 7.2 1.7 68% 5 75.39 1004.7
09 03:53 W 9 16.09 Fair CLR 7.2 2.8 74% 6 75.39 1004.8
09 02:53 SW 9 16.09 Fair CLR 10.6 2.8 59% 75.34 1004.2
09 01:53 SW 9 16.09 Fair CLR 11.1 5 66% 75.36 1004.5
09 00:53 SW 13 16.09 Fair CLR 11.7 5.6 21.7 11.7 66% 75.36 1004.4
08 23:53 SW 20 16.09 Fair CLR 15 7.2 60% 75.36 1004.2
08 22:53 SW 20 16.09 A Few Clouds FEW120 16.7 5.6 48% 75.34 1003.9
08 21:53 S 17 16.09 Overcast OVC110 18.9 3.9 37% 75.31 1003.7
08 20:53 SW 15 16.09 Overcast OVC110 19.4 0.6 29% 75.31 1003.9
08 19:53 SW 15 16.09 A Few Clouds FEW120 19.4 0 27% 75.26 1003.1
08 18:53 W 22 16.09 A Few Clouds FEW110 21.7 -1.1 23.3 20.6 22% 75.29 1003.5
08 17:53 SW 9 16.09 A Few Clouds FEW120 22.2 -0.6 22% 75.31 1004.0
08 16:53 SW 13 G 28 16.09 A Few Clouds FEW120 21.7 -0.6 23% 75.34 1004.5
08 15:53 W 22 G 41 16.09 Fair CLR 22.8 -0.6 21% 75.39 1005.1
08 14:53 W 19 16.09 Fair CLR 22.2 0 23% 75.46 1006.1
08 13:53 SW 19 16.09 Fair CLR 21.1 -0.6 23% 75.54 1007.0
08 12:53 Calm 16.09 Fair CLR 20.6 1.1 21.1 6.1 27% 75.57 1007.4
08 11:53 SW 11 16.09 Fair CLR 20.6 1.7 29% 75.64 1008.2
08 10:53 Vrbl 7 16.09 Fair CLR 19.4 0.6 29% 75.69 1008.9
08 09:53 S 7 16.09 Fair CLR 16.7 4.4 44% 75.72 1009.2
08 08:53 S 6 16.09 Fair CLR 13.3 2.8 49% 75.74 1009.6
08 07:53 SE 7 16.09 Fair CLR 10 -0.6 48% 9 75.72 1009.6
08 06:53 SE 6 16.09 Fair CLR 6.1 -3.3 7.8 3.3 51% 75.72 1009.6
08 05:53 S 9 16.09 Fair CLR 5.6 -3.9 51% 4 75.72 1009.6
08 04:53 E 7 16.09 Fair CLR 4.4 -3.3 58% 3 75.72 1009.7
08 03:53 E 11 16.09 Fair CLR 5 -3.9 53% 3 75.72 1009.6
08 02:53 E 13 16.09 Fair CLR 5.6 -3.9 51% 3 75.77 1010.1
08 01:53 E 11 16.09 Fair CLR 6.1 -3.9 49% 4 75.77 1010.3
08 00:53 E 13 16.09 Fair CLR 7.8 -3.9 18.3 7.2 44% 6 75.82 1010.7
07 23:53 NE 11 16.09 Fair CLR 8.3 -3.3 44% 7 75.82 1010.8
07 22:53 NE 11 16.09 Fair CLR 8.9 -3.9 41% 7 75.82 1010.9
07 21:53 NE 9 16.09 Fair CLR 11.7 -3.9 34% 75.79 1010.5
07 20:53 E 6 16.09 A Few Clouds FEW095 14.4 -2.8 31% 75.72 1009.6
07 19:53 NW 9 16.09 Mostly Cloudy BKN095 16.1 -0.6 32% 75.67 1008.9
07 18:53 W 13 16.09 Overcast OVC090 17.8 0.6 18.9 15 32% 75.67 1008.8
07 17:53 Vrbl 11 G 28 16.09 Mostly Cloudy BKN095 17.8 0.6 32% 75.67 1009.1
07 16:53 W 13 16.09 Mostly Cloudy BKN090 18.9 1.7 32% 75.69 1009.3
07 15:53 W 15 G 30 16.09 Partly Cloudy SCT100 16.7 1.1 35% 75.74 1010.0
07 14:53 SW 19 G 35 16.09 Mostly Cloudy BKN100 16.7 3.9 43% 75.79 1010.6
07 13:53 SW 13 G 39 16.09 Mostly Cloudy SCT070 BKN100 16.7 2.8 40% 75.79 1010.8
07 12:53 W 19 G 41 16.09 Partly Cloudy SCT100 16.1 1.1 16.7 5 36% 75.84 1011.3
07 11:53 W 19 G 35 16.09 A Few Clouds FEW110 15 2.2 42% 75.87 1011.7
07 10:53 SW 26 16.09 Fair CLR 13.9 2.2 45% 75.9 1012.0
07 09:53 SW 28 16.09 A Few Clouds FEW070 11.7 1.7 51% 75.87 1011.8
Date Time (cdt) Wind (kph) Vis. (km) Weather Sky Cond. Air Dwpt Max. Min. Relative Humidity Wind Chill (°C) Heat Index (°C) altimeter (cm) sea level (mb) 1 hr 3 hr 6 hr
6 hour
Temperature (ºC) Pressure Precipitation (cm)